Terminal Aerodrome Forecast
Issued by NWS Wilmington, OH

Current Version | Previous Version | Text Only | Print | Product List | Glossary Off
Versions: 1 2 3 4 5 6 7 8 9 10 11 12 13 14 15 16 17 18 19 20 21 22 23 24 25

000
FTUS41 KILN 251400 AAB
TAFCVG
TAF AMD
KCVG 251459Z 2515/2618 22016G26KT P6SM SCT025 BKN035
     FM252200 23009KT P6SM SCT035 BKN120
     FM260600 15010KT 4SM -SHRA BR VCTS OVC025CB=

USA.gov is the U.S. government's official web portal to all federal, state and local government web resources and services.